Terminal Aerodrome Forecast
Issued by NWS Spokane, WA

Home | Current Version | Previous Version | Text Only | Print | Product List | Glossary On
Versions: 1 2 3 4 5 6 7 8 9 10 11 12 13 14
000
FTUS46 KOTX 162328
TAFEAT
TAF
KEAT 162328Z 1700/1724 30006KT P6SM SCT050 BKN100
     FM170400 30008KT P6SM SCT060 BKN150
     FM171200 32004KT P6SM -RA SCT030 OVC050
     FM171800 18005KT P6SM -RA SCT030 OVC050=

USA.gov is the U.S. government's official web portal to all federal, state and local government web resources and services.